createdAt,value
2022-11-16T00:02:19.544Z,12.40
2022-11-16T00:04:47.355Z,9.98
2022-11-16T00:07:15.256Z,7.88
2022-11-16T00:09:42.951Z,5.65
2022-11-16T00:12:12.636Z,7.85
2022-11-16T00:14:40.321Z,13.73
2022-11-16T00:17:07.850Z,7.45
2022-11-16T00:19:35.792Z,10.90
2022-11-16T00:22:03.797Z,9.30
2022-11-16T00:24:31.309Z,13.77
2022-11-16T00:26:59.079Z,13.68
2022-11-16T00:29:27.225Z,11.52
2022-11-16T00:31:55.823Z,8.45
2022-11-16T00:34:24.644Z,10.48
2022-11-16T00:36:52.526Z,5.60
2022-11-16T00:39:20.914Z,9.68
2022-11-16T00:41:49.870Z,11.90
2022-11-16T00:44:19.009Z,11.20
2022-11-16T00:46:46.643Z,9.15
2022-11-16T00:49:14.667Z,9.68
2022-11-16T00:51:43.032Z,6.40
2022-11-16T00:54:11.311Z,5.75
2022-11-16T00:56:40.339Z,11.85
2022-11-16T00:59:08.371Z,6.53
2022-11-16T01:01:37.019Z,5.82
2022-11-16T01:04:05.100Z,3.50
2022-11-16T01:06:33.155Z,4.03
2022-11-16T01:09:02.068Z,2.13
2022-11-16T01:11:48.480Z,6.00
2022-11-16T01:14:16.556Z,3.08
2022-11-16T01:16:44.375Z,4.95
2022-11-16T01:19:12.000Z,3.20
2022-11-16T01:21:39.670Z,7.30
2022-11-16T01:24:07.392Z,4.72
2022-11-16T01:26:35.005Z,1.60
2022-11-16T01:29:03.258Z,2.38
2022-11-16T01:31:35.862Z,1.55
2022-11-16T01:34:04.728Z,4.20
2022-11-16T01:36:33.260Z,3.55
2022-11-16T01:39:04.598Z,3.63
2022-11-16T01:41:44.122Z,2.35
2022-11-16T01:44:14.709Z,4.95
2022-11-16T01:46:54.402Z,6.00
2022-11-16T01:49:25.828Z,8.25
2022-11-16T01:52:01.501Z,5.50
2022-11-16T01:54:32.926Z,2.90
2022-11-16T01:57:04.361Z,5.00
2022-11-16T01:59:48.500Z,5.55
2022-11-16T02:02:24.470Z,4.13
2022-11-16T02:04:55.054Z,4.80
2022-11-16T02:08:24.768Z,14.98
2022-11-16T02:11:18.238Z,11.23
2022-11-16T02:14:31.299Z,6.60
2022-11-16T02:17:20.858Z,11.93
2022-11-16T02:20:27.959Z,4.32
2022-11-16T02:23:26.249Z,11.18
2022-11-16T02:26:13.245Z,8.38
2022-11-16T02:29:09.904Z,7.15
2022-11-16T02:31:47.083Z,6.60
2022-11-16T02:34:16.926Z,9.15
2022-11-16T02:36:46.987Z,13.15
2022-11-16T02:39:19.672Z,8.67
2022-11-16T02:41:49.836Z,11.32
2022-11-16T02:44:21.981Z,14.88
2022-11-16T02:46:57.416Z,9.23
2022-11-16T02:49:27.082Z,10.88
2022-11-16T02:51:55.946Z,12.70
2022-11-16T02:54:24.690Z,7.95
2022-11-16T02:57:04.621Z,12.48
2022-11-16T02:59:38.643Z,7.63
2022-11-16T03:02:55.052Z,9.80
2022-11-16T03:05:39.256Z,5.70
2022-11-16T03:08:50.518Z,8.43
2022-11-16T03:11:37.198Z,14.35
2022-11-16T03:14:19.547Z,7.80
2022-11-16T03:17:00.488Z,11.85
2022-11-16T03:19:37.579Z,7.65
2022-11-16T03:22:17.070Z,10.40
2022-11-16T03:24:45.380Z,8.55
2022-11-16T03:27:32.727Z,9.13
2022-11-16T03:30:24.806Z,11.25
2022-11-16T03:33:02.473Z,9.52
2022-11-16T03:35:37.313Z,8.10
2022-11-16T03:38:06.707Z,6.88
2022-11-16T03:40:36.808Z,10.15
2022-11-16T03:43:06.632Z,8.73
2022-11-16T03:45:36.585Z,10.90
2022-11-16T03:48:07.320Z,9.75
2022-11-16T03:50:35.740Z,5.32
2022-11-16T03:53:04.166Z,7.28
2022-11-16T03:55:32.347Z,5.55
2022-11-16T03:57:59.885Z,10.82
2022-11-16T04:00:28.368Z,6.45
2022-11-16T04:02:56.284Z,8.30
2022-11-16T04:05:43.948Z,7.00
2022-11-16T04:08:34.710Z,7.53
2022-11-16T04:11:21.932Z,4.53
2022-11-16T04:14:10.438Z,5.63
2022-11-16T04:17:00.439Z,8.65
2022-11-16T04:19:46.750Z,7.88
2022-11-16T04:22:46.140Z,2.80
2022-11-16T04:25:32.177Z,5.20
2022-11-16T04:28:16.166Z,4.72
2022-11-16T04:31:13.667Z,12.35
2022-11-16T04:34:04.824Z,3.67
2022-11-16T04:36:51.505Z,7.15
2022-11-16T04:39:20.179Z,5.30
2022-11-16T04:42:07.242Z,9.70
2022-11-16T04:44:55.483Z,3.75
2022-11-16T04:47:26.230Z,3.97
2022-11-16T04:49:54.064Z,2.00
2022-11-16T04:52:22.942Z,8.35
2022-11-16T04:54:51.882Z,5.45
2022-11-16T04:57:19.447Z,8.10
2022-11-16T04:59:49.748Z,6.18
2022-11-16T05:02:17.667Z,6.20
2022-11-16T05:04:50.477Z,5.75
2022-11-16T05:07:19.760Z,5.15
2022-11-16T05:09:49.106Z,7.75
2022-11-16T05:12:23.752Z,3.70
2022-11-16T05:14:56.129Z,3.58
2022-11-16T05:17:27.267Z,7.22
2022-11-16T05:22:57.195Z,6.65
2022-11-16T05:25:33.840Z,4.32
2022-11-16T05:28:06.729Z,5.57
2022-11-16T05:30:38.605Z,4.70
2022-11-16T05:33:06.368Z,5.18
2022-11-16T05:35:38.819Z,5.65
2022-11-16T05:38:07.344Z,2.65
2022-11-16T05:40:40.116Z,6.45
2022-11-16T05:43:07.827Z,4.03
2022-11-16T05:45:40.729Z,3.08
2022-11-16T05:48:09.598Z,5.18
2022-11-16T05:50:42.509Z,6.43
2022-11-16T05:53:17.897Z,3.28
2022-11-16T05:55:45.357Z,5.22
2022-11-16T05:58:13.646Z,5.30
2022-11-16T06:00:42.061Z,7.38
2022-11-16T06:03:11.607Z,5.88
2022-11-16T06:05:40.737Z,6.47
2022-11-16T06:08:12.067Z,7.95
2022-11-16T06:10:40.018Z,14.73
2022-11-16T06:13:08.601Z,3.80
2022-11-16T06:15:38.761Z,8.13
2022-11-16T06:18:08.337Z,9.52
2022-11-16T06:20:39.019Z,6.93
2022-11-16T06:23:07.372Z,7.07
2022-11-16T06:25:39.317Z,6.45
2022-11-16T06:28:08.250Z,6.75
2022-11-16T06:30:38.454Z,12.95
2022-11-16T06:33:07.951Z,5.40
2022-11-16T06:35:36.478Z,11.30
2022-11-16T06:38:05.384Z,8.32
2022-11-16T06:40:34.048Z,11.52
2022-11-16T06:43:06.913Z,6.50
2022-11-16T06:45:35.118Z,11.35
2022-11-16T06:48:03.211Z,6.65
2022-11-16T06:50:30.944Z,7.25
2022-11-16T06:53:00.976Z,10.43
2022-11-16T06:55:30.088Z,9.05
2022-11-16T06:57:58.238Z,8.50
2022-11-16T07:00:28.284Z,8.05
2022-11-16T07:02:57.158Z,4.90
2022-11-16T07:05:25.060Z,12.18
2022-11-16T07:07:55.203Z,3.83
2022-11-16T07:10:23.708Z,8.68
2022-11-16T07:12:51.651Z,9.95
2022-11-16T07:15:20.988Z,7.18
2022-11-16T07:17:49.094Z,13.88
2022-11-16T07:20:17.170Z,7.93
2022-11-16T07:22:45.542Z,13.77
2022-11-16T07:25:16.052Z,7.83
2022-11-16T07:27:44.547Z,8.93
2022-11-16T07:30:13.319Z,8.90
2022-11-16T07:32:47.403Z,4.88
2022-11-16T07:37:56.543Z,5.80
2022-11-16T07:40:24.159Z,10.27
2022-11-16T07:42:51.935Z,7.88
2022-11-16T07:45:55.747Z,9.23
2022-11-16T07:51:16.353Z,17.42
2022-11-16T07:53:55.695Z,8.48
2022-11-16T07:56:24.600Z,10.20
2022-11-16T07:58:52.786Z,10.38
2022-11-16T08:01:21.166Z,7.03
2022-11-16T08:03:53.780Z,9.38
2022-11-16T08:06:24.930Z,5.57
2022-11-16T08:08:58.340Z,6.85
2022-11-16T08:11:27.684Z,5.32
2022-11-16T08:13:56.175Z,7.28
2022-11-16T08:16:23.919Z,8.50
2022-11-16T08:18:59.993Z,8.85
2022-11-16T08:21:28.103Z,4.88
2022-11-16T08:23:58.738Z,9.43
2022-11-16T08:26:27.823Z,8.93
2022-11-16T08:29:01.872Z,8.05
2022-11-16T08:31:34.229Z,5.05
2022-11-16T08:34:22.253Z,6.72
2022-11-16T08:39:27.782Z,5.63
2022-11-16T08:41:55.563Z,4.65
2022-11-16T08:44:24.503Z,5.53
2022-11-16T08:46:54.806Z,5.35
2022-11-16T08:49:29.846Z,8.38
2022-11-16T08:51:58.109Z,13.93
2022-11-16T08:54:28.785Z,5.35
2022-11-16T08:56:56.759Z,9.15
2022-11-16T08:59:24.600Z,7.47
2022-11-16T09:01:56.017Z,8.02
2022-11-16T09:04:24.484Z,4.20
2022-11-16T09:06:53.093Z,10.88
2022-11-16T09:09:20.896Z,7.07
2022-11-16T09:11:48.831Z,6.25
2022-11-16T09:14:16.234Z,5.25
2022-11-16T09:16:43.706Z,11.45
2022-11-16T09:19:12.064Z,5.15
2022-11-16T09:21:39.595Z,7.03
2022-11-16T09:24:07.114Z,6.07
2022-11-16T09:26:34.581Z,4.32
2022-11-16T09:29:04.322Z,4.90
2022-11-16T09:31:34.662Z,6.75
2022-11-16T09:34:02.887Z,10.10
2022-11-16T09:36:30.440Z,13.05
2022-11-16T09:42:05.771Z,5.68
2022-11-16T09:44:57.750Z,5.35
2022-11-16T09:47:44.641Z,8.70
2022-11-16T09:50:44.593Z,5.43
2022-11-16T09:53:23.993Z,9.35
2022-11-16T09:55:54.552Z,7.18
2022-11-16T09:58:31.440Z,5.00
2022-11-16T10:01:07.813Z,7.45
2022-11-16T10:03:41.579Z,4.57
2022-11-16T10:06:21.435Z,6.07
2022-11-16T10:08:53.918Z,6.20
2022-11-16T10:12:03.769Z,7.00
2022-11-16T10:15:01.769Z,6.90
2022-11-16T10:17:47.464Z,9.73
2022-11-16T10:20:39.306Z,5.63
2022-11-16T10:23:19.567Z,8.00
2022-11-16T10:26:18.837Z,5.77
2022-11-16T10:28:58.876Z,7.68
2022-11-16T10:31:51.560Z,6.97
2022-11-16T10:34:27.682Z,8.93
2022-11-16T10:37:03.173Z,7.88
2022-11-16T10:39:33.604Z,9.40
2022-11-16T10:42:07.737Z,7.35
2022-11-16T10:44:47.595Z,5.72
2022-11-16T10:47:34.746Z,9.68
2022-11-16T10:50:36.476Z,9.73
2022-11-16T10:53:04.129Z,5.65
2022-11-16T10:55:31.829Z,11.57
2022-11-16T10:58:02.184Z,11.15
2022-11-16T11:00:47.141Z,8.77
2022-11-16T11:03:15.397Z,8.32
2022-11-16T11:05:53.537Z,10.35
2022-11-16T11:08:31.591Z,8.10
2022-11-16T11:11:03.327Z,7.70
2022-11-16T11:13:34.823Z,11.73
2022-11-16T11:16:18.663Z,10.30
2022-11-16T11:18:46.419Z,11.32
2022-11-16T11:21:21.003Z,13.05
2022-11-16T11:23:52.685Z,11.80
2022-11-16T11:26:36.517Z,8.93
2022-11-16T11:29:29.016Z,7.65
2022-11-16T11:32:04.296Z,10.05
2022-11-16T11:34:41.103Z,6.22
2022-11-16T11:37:37.605Z,8.73
2022-11-16T11:40:18.862Z,7.18
2022-11-16T11:43:20.947Z,6.97
2022-11-16T11:46:09.819Z,12.32
2022-11-16T11:48:54.445Z,6.70
2022-11-16T11:51:29.582Z,11.05
2022-11-16T11:54:00.263Z,9.38
2022-11-16T11:56:30.747Z,9.65
2022-11-16T11:58:58.468Z,6.78
2022-11-16T12:01:55.999Z,8.95
2022-11-16T12:04:23.454Z,8.45
2022-11-16T12:07:18.739Z,11.95
2022-11-16T12:10:14.955Z,9.95
2022-11-16T12:12:52.542Z,10.10
2022-11-16T12:15:38.276Z,7.15
2022-11-16T12:18:35.965Z,8.02
2022-11-16T12:21:21.212Z,8.85
2022-11-16T12:24:22.189Z,13.48
2022-11-16T12:27:08.110Z,11.77
2022-11-16T12:29:44.892Z,11.35
2022-11-16T12:32:27.535Z,10.02
2022-11-16T12:35:08.290Z,10.35
2022-11-16T12:37:39.574Z,7.95
2022-11-16T12:40:10.343Z,14.98
2022-11-16T12:42:59.753Z,8.43
2022-11-16T12:45:45.258Z,9.52
2022-11-16T12:48:59.172Z,13.10
2022-11-16T12:51:45.058Z,10.20
2022-11-16T12:54:20.399Z,9.75
2022-11-16T12:56:59.555Z,14.10
2022-11-16T12:59:43.467Z,17.00
2022-11-16T13:02:43.346Z,10.32
2022-11-16T13:05:19.709Z,15.02
2022-11-16T13:07:59.229Z,17.60
2022-11-16T13:10:33.155Z,12.45
2022-11-16T13:16:07.822Z,12.23
2022-11-16T13:18:40.316Z,10.38
2022-11-16T13:21:36.133Z,13.27
2022-11-16T13:24:12.700Z,14.10
2022-11-16T13:27:01.269Z,15.90
2022-11-16T13:29:37.664Z,12.70
2022-11-16T13:32:13.897Z,16.65
2022-11-16T13:34:41.759Z,5.75
2022-11-16T13:37:33.993Z,9.65
2022-11-16T13:40:01.519Z,9.85
2022-11-16T13:42:34.874Z,10.18
2022-11-16T13:45:13.444Z,8.88
2022-11-16T13:47:40.965Z,7.25
2022-11-16T13:50:18.856Z,11.63
2022-11-16T13:55:48.228Z,8.32
2022-11-16T13:58:22.099Z,10.25
2022-11-16T14:01:19.190Z,8.63
2022-11-16T14:04:13.617Z,9.32
2022-11-16T14:06:57.498Z,12.30
2022-11-16T14:09:54.463Z,7.07
2022-11-16T14:12:40.752Z,8.93
2022-11-16T14:15:18.560Z,7.57
2022-11-16T14:18:11.756Z,10.57
2022-11-16T14:20:48.964Z,8.52
2022-11-16T14:24:01.252Z,13.40
2022-11-16T14:26:51.104Z,15.93
2022-11-16T14:29:49.197Z,13.43
2022-11-16T14:32:23.544Z,16.02
2022-11-16T14:34:54.339Z,13.18
2022-11-16T14:39:51.358Z,18.63
2022-11-16T14:42:38.199Z,19.30
2022-11-16T14:45:28.129Z,15.68
2022-11-16T14:48:27.724Z,16.98
2022-11-16T14:51:03.182Z,16.42
2022-11-16T14:53:32.253Z,12.40
2022-11-16T14:56:13.834Z,13.77
2022-11-16T14:58:59.539Z,18.60
2022-11-16T15:01:36.617Z,14.57
2022-11-16T15:04:07.936Z,19.55
2022-11-16T15:06:46.410Z,16.17
2022-11-16T15:09:22.484Z,15.70
2022-11-16T15:12:09.709Z,23.75
2022-11-16T15:14:44.368Z,29.35
2022-11-16T15:17:22.557Z,16.55
2022-11-16T15:20:02.451Z,18.13
2022-11-16T15:22:39.264Z,22.70
2022-11-16T15:25:22.978Z,20.17
2022-11-16T15:27:50.884Z,14.75
2022-11-16T15:30:37.980Z,23.63
2022-11-16T15:33:16.570Z,21.35
2022-11-16T15:35:44.284Z,20.48
2022-11-16T15:38:17.419Z,20.15
2022-11-16T15:40:54.168Z,19.83
2022-11-16T15:43:27.558Z,21.05
2022-11-16T15:45:55.998Z,16.55
2022-11-16T15:48:25.260Z,19.48
2022-11-16T15:51:05.229Z,17.15
2022-11-16T15:53:36.614Z,23.35
2022-11-16T15:56:09.690Z,22.58
2022-11-16T15:58:40.700Z,12.23
2022-11-16T16:03:38.017Z,23.83
2022-11-16T16:06:08.759Z,20.00
2022-11-16T16:08:37.623Z,22.42
2022-11-16T16:11:26.485Z,18.38
2022-11-16T16:14:02.783Z,25.02
2022-11-16T16:16:40.209Z,25.40
2022-11-16T16:19:31.102Z,24.10
2022-11-16T16:24:56.741Z,29.02
2022-11-16T16:27:26.501Z,21.98
2022-11-16T16:29:56.109Z,31.52
2022-11-16T16:32:31.773Z,25.05
2022-11-16T16:35:02.151Z,28.63
2022-11-16T16:37:32.066Z,28.90
2022-11-16T16:40:01.269Z,29.70
2022-11-16T16:42:29.165Z,32.28
2022-11-16T16:44:59.532Z,36.17
2022-11-16T16:47:27.110Z,29.10
2022-11-16T16:49:54.868Z,31.95
2022-11-16T16:52:22.990Z,34.25
2022-11-16T16:54:51.881Z,26.60
2022-11-16T16:57:19.473Z,32.38
2022-11-16T16:59:48.429Z,31.40
2022-11-16T17:02:17.023Z,33.28
2022-11-16T17:04:46.661Z,29.05
2022-11-16T17:07:15.738Z,39.05
2022-11-16T17:09:43.759Z,42.33
2022-11-16T17:12:11.578Z,36.45
2022-11-16T17:14:39.557Z,31.33
2022-11-16T17:17:07.261Z,34.88
2022-11-16T17:19:34.884Z,34.72
2022-11-16T17:22:02.802Z,31.80
2022-11-16T17:24:30.664Z,41.78
2022-11-16T17:26:58.157Z,29.35
2022-11-16T17:29:26.146Z,33.60
2022-11-16T17:31:54.065Z,38.72
2022-11-16T17:34:22.297Z,34.63
2022-11-16T17:36:51.548Z,32.78
2022-11-16T17:39:19.583Z,31.15
2022-11-16T17:41:47.048Z,28.35
2022-11-16T17:44:20.175Z,25.33
2022-11-16T17:46:49.403Z,34.65
2022-11-16T17:49:16.997Z,43.53
2022-11-16T17:51:45.422Z,46.55
2022-11-16T17:54:13.465Z,43.55
2022-11-16T17:56:41.020Z,33.88
2022-11-16T17:59:08.659Z,33.17
2022-11-16T18:01:36.731Z,27.20
2022-11-16T18:04:05.028Z,25.00
2022-11-16T18:06:33.742Z,26.55
2022-11-16T18:09:01.464Z,23.20
2022-11-16T18:11:29.179Z,27.58
2022-11-16T18:14:00.796Z,24.25
2022-11-16T18:16:31.865Z,27.15
2022-11-16T18:19:02.461Z,28.67
2022-11-16T18:21:30.898Z,25.00
2022-11-16T18:23:59.555Z,19.77
2022-11-16T18:26:27.203Z,19.17
2022-11-16T18:28:54.839Z,22.73
2022-11-16T18:31:23.887Z,23.45
2022-11-16T18:33:52.057Z,26.83
2022-11-16T18:36:21.203Z,32.60
2022-11-16T18:38:48.991Z,22.95
2022-11-16T18:41:19.709Z,22.85
2022-11-16T18:43:59.859Z,12.52
2022-11-16T18:46:32.666Z,22.50
2022-11-16T18:49:00.431Z,13.18
2022-11-16T18:51:29.337Z,20.30
2022-11-16T18:53:57.787Z,16.33
2022-11-16T18:56:26.324Z,19.42
2022-11-16T18:58:54.231Z,17.85
2022-11-16T19:01:24.215Z,17.38
2022-11-16T19:03:53.283Z,16.33
2022-11-16T19:06:22.513Z,16.85
2022-11-16T19:08:59.841Z,16.70
2022-11-16T19:11:28.635Z,14.80
2022-11-16T19:14:04.730Z,17.10
2022-11-16T19:16:32.241Z,14.20
2022-11-16T19:19:01.477Z,15.02
2022-11-16T19:21:29.524Z,14.23
2022-11-16T19:23:57.791Z,14.65
2022-11-16T19:26:27.488Z,12.57
2022-11-16T19:28:56.071Z,12.90
2022-11-16T19:31:30.555Z,14.43
2022-11-16T19:34:02.071Z,13.70
2022-11-16T19:36:35.114Z,14.05
2022-11-16T19:39:03.252Z,12.90
2022-11-16T19:41:31.354Z,9.52
2022-11-16T19:44:00.285Z,18.67
2022-11-16T19:46:29.999Z,15.30
2022-11-16T19:48:57.629Z,15.85
2022-11-16T19:51:30.383Z,15.38
2022-11-16T19:54:00.282Z,15.63
2022-11-16T19:56:29.090Z,10.50
2022-11-16T19:58:57.182Z,16.17
2022-11-16T20:01:29.382Z,12.15
2022-11-16T20:03:59.951Z,20.60
2022-11-16T20:06:36.627Z,14.05
2022-11-16T20:09:11.329Z,14.02
2022-11-16T20:11:41.051Z,15.93
2022-11-16T20:14:10.923Z,10.68
2022-11-16T20:16:40.130Z,9.90
2022-11-16T20:19:09.603Z,8.70
2022-11-16T20:21:41.664Z,17.02
2022-11-16T20:24:13.403Z,16.33
2022-11-16T20:26:44.091Z,9.88
2022-11-16T20:29:13.229Z,12.35
2022-11-16T20:31:42.914Z,16.75
2022-11-16T20:34:15.475Z,14.23
2022-11-16T20:36:45.024Z,10.13
2022-11-16T20:39:17.894Z,9.07
2022-11-16T20:41:46.858Z,12.55
2022-11-16T20:44:22.540Z,13.35
2022-11-16T20:46:53.053Z,8.95
2022-11-16T20:49:20.798Z,9.30
2022-11-16T20:51:49.480Z,6.55
2022-11-16T20:54:16.994Z,4.88
2022-11-16T20:56:44.788Z,4.30
2022-11-16T20:59:12.782Z,3.42
2022-11-16T21:01:41.582Z,7.47
2022-11-16T21:04:10.815Z,5.32
2022-11-16T21:06:38.853Z,11.48
2022-11-16T21:09:06.647Z,6.05
2022-11-16T21:11:54.209Z,8.43
2022-11-16T21:14:22.725Z,10.52
2022-11-16T21:16:50.353Z,8.93
2022-11-16T21:19:18.080Z,11.50
2022-11-16T21:21:45.692Z,14.35
2022-11-16T21:24:14.175Z,9.02
2022-11-16T21:26:41.933Z,13.60
2022-11-16T21:29:09.406Z,13.23
2022-11-16T21:31:37.213Z,12.15
2022-11-16T21:34:05.846Z,11.43
2022-11-16T21:36:36.291Z,10.18
2022-11-16T21:39:03.872Z,5.78
2022-11-16T21:41:32.055Z,11.98
2022-11-16T21:44:01.678Z,12.40
2022-11-16T21:46:29.272Z,7.88
2022-11-16T21:48:58.095Z,6.75
2022-11-16T21:51:27.443Z,6.97
2022-11-16T21:53:55.577Z,9.85
2022-11-16T21:56:25.539Z,8.10
2022-11-16T21:58:53.984Z,10.02
2022-11-16T22:01:23.240Z,16.50
2022-11-16T22:04:11.158Z,12.75
2022-11-16T22:06:57.516Z,17.05
2022-11-16T22:09:25.108Z,23.05
2022-11-16T22:11:52.986Z,19.30
2022-11-16T22:14:21.709Z,18.52
2022-11-16T22:16:50.974Z,20.45
2022-11-16T22:19:19.727Z,26.92
2022-11-16T22:21:47.829Z,27.05
2022-11-16T22:24:15.942Z,25.08
2022-11-16T22:26:43.404Z,31.45
2022-11-16T22:29:11.119Z,29.33
2022-11-16T22:31:39.117Z,41.83
2022-11-16T22:34:06.617Z,42.88
2022-11-16T22:36:34.729Z,40.15
2022-11-16T22:39:02.539Z,56.35
2022-11-16T22:41:30.833Z,47.60
2022-11-16T22:43:58.738Z,47.40
2022-11-16T22:46:26.555Z,49.00
2022-11-16T22:48:54.652Z,49.72
2022-11-16T22:51:31.228Z,45.42
2022-11-16T22:54:01.842Z,58.97
2022-11-16T22:56:31.494Z,59.10
2022-11-16T22:59:00.879Z,41.55
2022-11-16T23:01:34.471Z,61.17
2022-11-16T23:04:02.927Z,51.33
2022-11-16T23:06:31.000Z,48.15
2022-11-16T23:08:59.091Z,53.13
2022-11-16T23:11:46.140Z,55.63
2022-11-16T23:14:35.292Z,52.47
2022-11-16T23:17:04.526Z,51.75
2022-11-16T23:19:52.991Z,65.15
2022-11-16T23:22:40.743Z,64.40
2022-11-16T23:25:30.870Z,48.95
2022-11-16T23:28:14.787Z,49.03
2022-11-16T23:30:43.008Z,55.70
2022-11-16T23:33:11.267Z,52.10
2022-11-16T23:35:39.519Z,46.58
2022-11-16T23:38:08.275Z,46.35
2022-11-16T23:40:38.452Z,42.50
2022-11-16T23:43:25.804Z,55.90
2022-11-16T23:45:53.630Z,49.72
2022-11-16T23:48:21.191Z,47.05
2022-11-16T23:50:48.909Z,42.55
2022-11-16T23:53:16.897Z,42.53
2022-11-16T23:55:44.528Z,39.08
2022-11-16T23:58:14.443Z,31.63
